Time;durP1;ratioP1;P1;durP2;ratioP2;P2;SDS_P1;SDS_P2;PMS_P1;PMS_P2;Temp;Humidity;BMP_temperature;BMP_pressure;BME280_temperature;BME280_humidity;BME280_pressure;Samples;Min_cycle;Max_cycle;Signal;HPM_P1;HPM_P2
2022/08/15 00:01:06;;;;;;;3.50;3.25;;;24.70;95.70;;;24.89;47.07;99954.47;5008530;28;97042;-51
2022/08/15 00:03:40;;;;;;;3.10;2.90;;;24.70;95.70;;;24.86;47.22;99946.69;4987647;28;97110;-45
2022/08/15 00:06:11;;;;;;;3.05;2.85;;;24.70;95.70;;;24.84;47.21;99952.25;5005108;28;97404;-49
2022/08/15 00:08:43;;;;;;;3.05;2.85;;;24.70;95.70;;;24.85;47.17;99945.00;5008974;28;97473;-45
2022/08/15 00:11:19;;;;;;;3.30;3.10;;;24.70;95.80;;;24.88;47.18;99950.06;5014496;28;96705;-51
2022/08/15 00:13:56;;;;;;;3.60;3.30;;;24.70;95.80;;;24.89;47.03;99949.09;4986016;28;100849;-51
2022/08/15 00:16:22;;;;;;;3.03;2.83;;;24.70;95.70;;;24.89;47.23;99951.78;5006731;28;98241;-55
2022/08/15 00:18:49;;;;;;;6.40;5.80;;;24.70;95.70;;;24.92;46.65;99954.16;4985256;28;97300;-55
2022/08/15 00:21:19;;;;;;;3.85;3.55;;;24.70;95.40;;;24.93;46.91;99955.84;5011208;28;96595;-49
2022/08/15 00:23:44;;;;;;;3.53;3.22;;;24.80;95.60;;;24.91;47.03;99949.75;4975561;27;104142;-50
2022/08/15 00:26:13;;;;;;;3.88;3.58;;;24.70;95.70;;;24.93;47.05;99950.44;5014526;28;96990;-51
2022/08/15 00:28:39;;;;;;;4.68;4.22;;;24.80;95.70;;;24.92;46.99;99940.66;5006970;28;97508;-47
2022/08/15 00:31:08;;;;;;;3.15;2.88;;;24.80;95.60;;;24.94;46.90;99952.13;5013052;27;97449;-48
2022/08/15 00:33:36;;;;;;;7.68;6.82;;;24.80;95.70;;;24.97;45.88;99956.34;5001611;28;97420;-49
2022/08/15 00:36:03;;;;;;;3.08;2.88;;;24.80;94.90;;;24.95;47.03;99955.66;5003971;28;98275;-53
2022/08/15 00:38:31;;;;;;;3.58;3.28;;;24.80;95.60;;;24.93;46.88;99953.13;4998946;28;98725;-52
2022/08/15 00:43:56;;;;;;;3.55;3.25;;;24.70;95.70;;;24.89;46.97;99957.19;5007059;28;101279;-52
2022/08/15 00:46:25;;;;;;;5.80;5.25;;;24.70;95.70;;;24.89;47.06;99954.47;5011919;28;97298;-48
2022/08/15 00:48:51;;;;;;;3.85;3.42;;;24.70;95.70;;;24.90;47.16;99950.78;4998063;28;96884;-50
2022/08/15 00:51:46;;;;;;;4.03;3.72;;;24.70;95.70;;;24.93;46.98;99956.69;4995868;28;97184;-53
2022/08/15 00:54:48;;;;;;;3.88;3.58;;;24.80;95.70;;;24.89;47.15;99951.78;4967168;28;102778;-53
2022/08/15 00:57:21;;;;;;;3.70;3.40;;;24.70;95.80;;;24.90;47.13;99966.97;4981028;28;102718;-53
2022/08/15 00:59:53;;;;;;;3.90;3.60;;;24.70;95.80;;;24.89;47.13;99954.47;5008664;28;97183;-51
2022/08/15 01:02:29;;;;;;;7.18;6.50;;;24.70;95.70;;;24.90;47.02;99961.56;4984554;28;97396;-51
2022/08/15 01:04:55;;;;;;;3.35;3.08;;;24.70;95.40;;;24.89;47.07;99968.81;4997386;28;98007;-49
2022/08/15 01:07:22;;;;;;;3.20;3.00;;;24.70;95.70;;;24.90;47.14;99966.97;4996366;28;97286;-49
2022/08/15 01:09:50;;;;;;;3.28;3.08;;;24.70;95.80;;;24.89;47.06;99973.38;5011221;28;97314;-47
2022/08/15 01:12:22;;;;;;;3.53;3.30;;;24.70;95.80;;;24.88;47.16;99972.53;4988410;28;97138;-50
2022/08/15 01:14:59;;;;;;;3.55;3.25;;;24.70;95.80;;;24.89;47.19;99981.44;4992063;28;101864;-49
2022/08/15 01:17:28;;;;;;;3.00;2.80;;;24.70;95.80;;;24.86;47.17;99976.34;5003698;28;97189;-52
2022/08/15 01:20:24;;;;;;;3.80;3.50;;;24.70;95.80;;;24.91;47.04;99974.88;4982384;28;97422;-48
2022/08/15 01:23:17;;;;;;;3.38;3.17;;;24.70;95.60;;;24.89;47.11;99967.97;4972538;28;97367;-50
2022/08/15 01:26:09;;;;;;;3.30;3.00;;;24.70;95.80;;;24.88;47.15;99974.34;5004500;28;101533;-48
2022/08/15 01:28:41;;;;;;;3.67;3.38;;;24.70;95.80;;;24.86;47.16;99977.19;4981598;28;97188;-52
2022/08/15 01:31:17;;;;;;;3.58;3.28;;;24.70;95.80;;;24.86;47.30;99968.25;4995113;28;96848;-50
2022/08/15 01:33:52;;;;;;;4.20;3.90;;;24.70;95.90;;;24.88;47.16;99979.72;5000452;28;96970;-53
2022/08/15 01:36:26;;;;;;;3.60;3.30;;;24.70;95.80;;;24.87;47.32;99972.66;4991773;28;102270;-56
2022/08/15 01:39:26;;;;;;;3.70;3.40;;;24.70;95.90;;;24.88;47.36;99974.34;5003359;28;99967;-53
2022/08/15 01:42:14;;;;;;;3.78;3.47;;;24.70;95.90;;;24.85;47.40;99980.06;4999577;28;97060;-55
2022/08/15 01:44:59;;;;;;;3.83;3.45;;;24.70;95.90;;;24.85;47.41;99980.06;4980698;28;97413;-51
2022/08/15 01:48:12;;;;;;;4.05;3.75;;;24.70;95.90;;;24.87;47.21;99967.25;5002388;28;100025;-51
2022/08/15 01:50:49;;;;;;;3.63;3.42;;;24.70;95.90;;;24.83;47.43;99976.69;4982831;28;97129;-50
2022/08/15 01:53:25;;;;;;;3.63;3.33;;;24.60;96.00;;;24.83;47.57;99979.38;5008337;28;98515;-55
2022/08/15 01:56:08;;;;;;;4.00;3.70;;;24.60;96.00;;;24.84;47.47;99983.78;4982346;28;97179;-48
2022/08/15 01:58:41;;;;;;;3.20;3.00;;;24.60;96.00;;;24.83;47.36;99982.09;4997977;28;98038;-52
2022/08/15 02:01:13;;;;;;;3.20;3.00;;;24.60;96.00;;;24.85;47.45;99985.47;4988821;28;97058;-54
2022/08/15 02:03:43;;;;;;;3.88;3.58;;;24.60;96.00;;;24.84;47.41;99986.47;4993784;28;97012;-47
2022/08/15 02:06:21;;;;;;;3.63;3.30;;;24.60;95.90;;;24.85;47.43;99994.41;5013622;28;97156;-48
2022/08/15 02:08:47;;;;;;;4.32;4.03;;;24.70;95.90;;;24.86;47.31;99992.53;4993109;28;101927;-53
2022/08/15 02:11:18;;;;;;;4.03;3.63;;;24.70;95.90;;;24.85;47.38;99991.69;5013132;28;97570;-51
2022/08/15 02:13:47;;;;;;;3.70;3.40;;;24.70;95.90;;;24.84;47.47;99998.09;5008032;28;97358;-50
2022/08/15 02:16:16;;;;;;;3.63;3.33;;;24.70;95.90;;;24.86;47.28;99989.84;5013334;28;96812;-52
2022/08/15 02:18:43;;;;;;;5.95;5.53;;;24.70;95.90;;;24.88;46.75;99990.53;5004894;28;97724;-52
2022/08/15 02:21:09;;;;;;;4.25;3.95;;;24.70;95.50;;;24.89;47.14;99986.84;5013682;28;101738;-48
2022/08/15 02:23:36;;;;;;;3.35;3.03;;;24.70;95.60;;;24.88;47.31;99985.13;4994979;28;97090;-54
2022/08/15 02:26:06;;;;;;;4.45;4.03;;;24.70;95.90;;;24.87;47.20;99988.84;5013254;28;97334;-51
2022/08/15 02:28:32;;;;;;;3.58;3.35;;;24.70;95.90;;;24.87;47.24;99988.84;5002207;28;97239;-47
2022/08/15 02:30:58;;;;;;;3.50;3.28;;;24.70;95.90;;;24.86;47.27;99985.28;5008345;28;96571;-51
2022/08/15 02:33:27;;;;;;;3.97;3.67;;;24.70;95.90;;;24.86;47.23;99979.06;5003922;28;97222;-48
2022/08/15 02:35:54;;;;;;;4.05;3.75;;;24.70;95.90;;;24.83;47.47;99977.53;4996698;28;97327;-51
2022/08/15 02:38:20;;;;;;;4.32;3.95;;;24.60;95.90;;;24.84;46.82;99972.97;4998641;28;97664;-49
2022/08/15 02:40:50;;;;;;;4.22;3.83;;;24.60;95.60;;;24.86;47.23;99968.25;4998431;28;97283;-50
2022/08/15 02:43:18;;;;;;;4.03;3.72;;;24.70;95.90;;;24.86;47.31;99970.97;5005109;28;97123;-49
2022/08/15 02:45:47;;;;;;;4.20;3.90;;;24.70;95.90;;;24.85;47.28;99969.28;4987454;28;98865;-47
2022/08/15 02:48:14;;;;;;;3.60;3.33;;;24.60;95.90;;;24.85;47.24;99970.13;4982324;28;97570;-48
2022/08/15 02:50:41;;;;;;;4.32;4.00;;;24.70;96.00;;;24.85;47.36;99980.06;4996688;28;97660;-45
2022/08/15 02:53:15;;;;;;;3.72;3.47;;;24.60;96.30;;;24.87;47.24;99988.84;4985632;28;97277;-55
2022/08/15 02:55:47;;;;;;;3.88;3.58;;;24.70;96.00;;;24.89;47.26;99986.84;5006100;28;97163;-48
2022/08/15 02:58:14;;;;;;;3.83;3.53;;;24.70;95.90;;;24.88;47.34;99982.44;5004554;28;98751;-48
2022/08/15 03:00:44;;;;;;;3.97;3.67;;;24.70;95.90;;;24.88;47.26;99977.91;5000803;28;99129;-48
2022/08/15 03:03:14;;;;;;;3.88;3.58;;;24.70;95.90;;;24.89;47.28;99982.28;5003193;28;97106;-48
2022/08/15 03:05:48;;;;;;;4.45;4.15;;;24.70;95.90;;;24.90;47.32;99975.03;4994660;28;96967;-49
2022/08/15 03:08:14;;;;;;;3.90;3.60;;;24.70;95.80;;;24.88;47.09;99971.63;4996664;28;97168;-50
2022/08/15 03:10:41;;;;;;;3.80;3.50;;;24.70;95.80;;;24.88;47.23;99969.81;5001184;27;97553;-47
2022/08/15 03:13:14;;;;;;;4.32;3.95;;;24.70;95.90;;;24.92;47.01;99964.94;5013137;28;97404;-48
2022/08/15 03:15:47;;;;;;;3.95;3.65;;;24.70;95.60;;;24.90;47.27;99961.56;4981693;28;97005;-51
2022/08/15 03:18:14;;;;;;;4.40;4.03;;;24.70;95.90;;;24.89;47.18;99966.13;5000569;28;97629;-48
2022/08/15 03:20:44;;;;;;;4.30;4.00;;;24.70;95.90;;;24.89;46.96;99959.88;4996703;28;96942;-47
2022/08/15 03:23:11;;;;;;;4.63;4.22;;;24.70;95.70;;;24.89;47.03;99959.88;5002808;28;97304;-48
2022/08/15 03:25:43;;;;;;;4.03;3.72;;;24.70;95.60;;;24.89;47.33;99955.31;5002297;28;97018;-51
2022/08/15 03:28:09;;;;;;;3.40;3.20;;;24.70;95.90;;;24.87;47.32;99951.06;5007690;28;96999;-48
2022/08/15 03:30:37;;;;;;;3.85;3.55;;;24.70;96.00;;;24.88;47.24;99947.38;5002144;28;97416;-51
2022/08/15 03:33:04;;;;;;;3.80;3.50;;;24.70;96.00;;;24.88;47.31;99952.75;5011157;28;97247;-45
2022/08/15 03:35:46;;;;;;;3.65;3.35;;;24.70;96.00;;;24.89;47.35;99946.38;5004589;28;97133;-52
2022/08/15 03:38:13;;;;;;;3.90;3.70;;;24.70;96.00;;;24.87;47.48;99941.13;5012551;28;97925;-48
2022/08/15 03:40:43;;;;;;;4.28;3.97;;;24.70;96.00;;;24.86;47.34;99938.59;5003171;28;98452;-53
2022/08/15 03:43:29;;;;;;;3.33;3.13;;;24.70;96.00;;;24.87;47.39;99941.13;5008119;28;97307;-47
2022/08/15 03:46:06;;;;;;;4.32;3.97;;;24.70;96.00;;;24.86;47.44;99933.19;5008215;28;97511;-54
2022/08/15 03:48:41;;;;;;;3.95;3.65;;;24.70;96.00;;;24.87;47.35;99940.28;4996407;28;98050;-52
2022/08/15 03:51:09;;;;;;;3.63;3.33;;;24.70;96.00;;;24.86;47.33;99933.19;5002798;28;97562;-51
2022/08/15 03:53:53;;;;;;;5.35;4.95;;;24.70;95.80;;;24.88;46.57;99926.66;5009680;28;97601;-52
2022/08/15 03:56:26;;;;;;;5.70;4.75;;;24.70;95.50;;;24.87;46.83;99929.50;5006887;28;97325;-52
2022/08/15 03:58:55;;;;;;;7.32;6.43;;;24.70;95.60;;;24.88;46.70;99933.88;4998550;28;97726;-50
2022/08/15 04:01:27;;;;;;;6.45;5.40;;;24.60;95.40;;;24.89;46.71;99931.06;5002248;28;97787;-47
2022/08/15 04:03:53;;;;;;;4.55;4.15;;;24.60;95.40;;;24.87;47.25;99934.91;4998362;28;97370;-48
2022/08/15 04:06:24;;;;;;;4.82;4.43;;;24.60;95.70;;;24.87;47.02;99932.19;5010068;27;97028;-56
2022/08/15 04:08:53;;;;;;;5.05;4.55;;;24.60;95.70;;;24.86;46.68;99938.59;5007904;28;97476;-48
2022/08/15 04:11:22;;;;;;;3.95;3.65;;;24.60;95.70;;;24.83;47.32;99938.94;5004185;28;98312;-56
2022/08/15 04:13:49;;;;;;;4.50;4.10;;;24.60;96.10;;;24.81;47.33;99933.72;5010622;28;97246;-49
2022/08/15 04:16:16;;;;;;;4.40;4.00;;;24.60;96.10;;;24.82;47.26;99938.09;5008262;28;97462;-52
2022/08/15 04:18:42;;;;;;;7.30;5.95;;;24.60;96.00;;;24.84;47.07;99932.53;5004780;28;97401;-50
2022/08/15 04:21:11;;;;;;;7.93;5.20;;;24.60;96.00;;;24.82;47.36;99929.16;5007922;28;97903;-48
2022/08/15 04:23:41;;;;;;;3.85;3.55;;;24.60;96.00;;;24.80;47.33;99937.41;5006275;28;97592;-54
2022/08/15 04:26:07;;;;;;;4.32;4.03;;;24.60;96.20;;;24.80;47.56;99939.28;4985929;28;97095;-48
2022/08/15 04:28:33;;;;;;;3.95;3.65;;;24.60;96.10;;;24.80;47.62;99940.09;4996151;28;98013;-49
2022/08/15 04:31:02;;;;;;;4.55;4.15;;;24.60;96.20;;;24.82;47.63;99939.94;5009027;28;97436;-51
2022/08/15 04:33:32;;;;;;;3.85;3.55;;;24.60;96.30;;;24.83;47.40;99949.72;5003467;28;98199;-49
2022/08/15 04:36:01;;;;;;;4.32;3.92;;;24.60;96.20;;;24.82;47.32;99937.25;4993641;28;97400;-53
2022/08/15 04:38:27;;;;;;;5.20;4.70;;;24.60;96.20;;;24.84;47.31;99949.56;5002258;28;97403;-45
2022/08/15 04:40:54;;;;;;;6.70;5.97;;;24.60;96.10;;;24.85;47.23;99953.09;5009295;28;96984;-48
2022/08/15 04:43:22;;;;;;;4.18;3.88;;;24.60;96.00;;;24.84;47.47;99954.09;4991896;28;97142;-45
2022/08/15 04:45:49;;;;;;;4.00;3.70;;;24.60;96.30;;;24.83;47.46;99961.34;5000223;28;100470;-49
2022/08/15 04:48:16;;;;;;;4.07;3.78;;;24.60;96.20;;;24.83;47.48;99955.13;5002784;28;97087;-50
2022/08/15 04:50:45;;;;;;;4.22;3.83;;;24.60;96.20;;;24.84;47.63;99964.88;4994789;28;97126;-52
2022/08/15 04:53:13;;;;;;;4.00;3.67;;;24.60;96.20;;;24.84;47.42;99967.59;5004874;28;97521;-47
2022/08/15 04:55:42;;;;;;;4.20;3.90;;;24.60;96.20;;;24.85;47.55;99963.88;5008135;28;97600;-49
2022/08/15 04:58:28;;;;;;;4.00;3.70;;;24.60;96.30;;;24.87;47.58;99961.88;5003932;28;97397;-50
2022/08/15 05:00:59;;;;;;;3.85;3.55;;;24.60;96.20;;;24.84;47.58;99970.28;4994973;28;101394;-50
2022/08/15 05:03:25;;;;;;;4.13;3.72;;;24.60;96.20;;;24.84;47.58;99973.81;5002138;28;97165;-50
2022/08/15 05:06:09;;;;;;;4.18;3.78;;;24.60;96.20;;;24.85;47.57;99971.97;5003012;28;97318;-49
2022/08/15 05:08:38;;;;;;;3.80;3.50;;;24.60;96.20;;;24.84;47.61;99978.38;5007890;28;99144;-48
2022/08/15 05:11:11;;;;;;;4.15;3.75;;;24.60;96.20;;;24.86;47.58;99976.34;4981657;28;102262;-52
2022/08/15 05:13:39;;;;;;;3.60;3.30;;;24.60;96.20;;;24.86;47.42;99984.44;4990847;28;97537;-50
2022/08/15 05:16:07;;;;;;;4.38;3.85;;;24.60;96.20;;;24.88;47.39;99985.13;5013375;27;97019;-53
2022/08/15 05:18:40;;;;;;;4.10;3.70;;;24.70;96.20;;;24.86;47.51;99982.59;5009563;28;97556;-50
2022/08/15 05:21:09;;;;;;;4.13;3.70;;;24.70;96.20;;;24.87;47.46;99975.34;4991456;28;98538;-46
2022/08/15 05:23:37;;;;;;;3.70;3.40;;;24.70;96.20;;;24.87;47.49;99983.44;4999620;28;97670;-46
2022/08/15 05:26:05;;;;;;;4.75;4.13;;;24.70;96.20;;;24.88;47.57;99979.72;4998811;28;97561;-51
2022/08/15 05:28:31;;;;;;;4.25;3.85;;;24.70;96.20;;;24.86;47.56;99977.19;4995317;28;97424;-49
2022/08/15 05:30:59;;;;;;;4.50;4.10;;;24.70;96.20;;;24.88;47.46;99979.72;4998047;28;97067;-52
2022/08/15 05:33:29;;;;;;;4.23;3.73;;;24.70;96.20;;;24.87;47.51;99984.28;5005797;28;97090;-53
2022/08/15 05:35:58;;;;;;;6.15;5.10;;;24.70;96.20;;;24.89;47.65;99981.44;5004755;28;96770;-49
2022/08/15 05:38:36;;;;;;;5.00;3.97;;;24.70;96.50;;;24.88;47.52;99980.59;4998251;28;97939;-47
2022/08/15 05:41:22;;;;;;;4.20;3.80;;;24.70;96.20;;;24.89;47.68;99981.44;4989004;28;97224;-49
2022/08/15 05:43:56;;;;;;;8.73;5.53;;;24.70;96.30;;;24.89;47.34;99984.16;4970388;28;97377;-47
2022/08/15 05:46:42;;;;;;;4.22;3.60;;;24.70;96.20;;;24.89;47.37;99984.16;4994812;28;97479;-48
2022/08/15 05:49:45;;;;;;;3.88;3.47;;;24.70;96.20;;;24.85;47.50;99982.75;5004771;28;97466;-54
2022/08/15 05:52:29;;;;;;;4.07;3.60;;;24.70;96.20;;;24.85;47.48;99985.47;4984452;28;101158;-48
2022/08/15 05:55:14;;;;;;;3.50;3.20;;;24.60;96.20;;;24.86;47.63;99989.84;4999380;28;98106;-48
2022/08/15 05:58:20;;;;;;;4.00;3.70;;;24.60;96.20;;;24.88;47.50;99990.53;4996784;28;96892;-50
2022/08/15 06:01:19;;;;;;;8.50;4.88;;;24.70;96.20;;;24.90;47.54;100000.16;4999880;28;102061;-49
2022/08/15 06:04:02;;;;;;;8.00;5.63;;;24.70;96.20;;;24.90;47.06;99993.94;5000434;28;101822;-51
2022/08/15 06:06:31;;;;;;;4.80;3.97;;;24.70;96.00;;;24.88;47.41;99985.13;5003372;28;97119;-49
2022/08/15 06:09:26;;;;;;;7.78;5.63;;;24.70;96.20;;;24.91;47.45;99993.75;4997665;28;97747;-53
2022/08/15 06:11:55;;;;;;;6.18;4.78;;;24.70;96.30;;;24.90;47.43;99994.78;4986090;28;101684;-49
2022/08/15 06:14:31;;;;;;;7.00;4.25;;;24.70;96.10;;;24.93;47.14;99993.59;4983120;28;97546;-48
2022/08/15 06:17:28;;;;;;;8.57;4.00;;;24.70;96.10;;;24.95;46.11;100001.53;5003292;27;97465;-50
2022/08/15 06:20:00;;;;;;;9.00;3.38;;;24.70;95.40;;;24.91;46.96;100001.84;4999388;28;97521;-49
2022/08/15 06:22:50;;;;;;;7.28;3.17;;;24.70;95.50;;;24.96;47.03;100005.91;4993094;28;97522;-53
2022/08/15 06:25:25;;;;;;;4.68;2.67;;;24.80;95.10;;;24.94;46.87;100011.47;5000687;28;96939;-53
2022/08/15 06:28:09;;;;;;;6.50;3.10;;;24.80;95.20;;;24.95;45.68;100006.91;4979597;28;97433;-47
2022/08/15 06:31:10;;;;;;;7.88;3.00;;;24.70;95.00;;;25.00;45.16;100005.44;5005665;28;97362;-49
2022/08/15 06:33:50;;;;;;;6.55;3.25;;;24.80;94.70;;;24.97;46.85;100004.91;5001858;28;97650;-51
2022/08/15 06:36:27;;;;;;;6.07;3.45;;;24.80;95.40;;;24.94;46.65;100011.47;4986756;28;97376;-51
2022/08/15 06:39:37;;;;;;;7.53;2.67;;;24.80;95.30;;;24.97;46.65;100011.13;4983476;28;97226;-49
2022/08/15 06:42:26;;;;;;;6.93;3.00;;;24.80;95.50;;;25.00;45.80;100021.63;4989048;28;97316;-46
2022/08/15 06:44:57;;;;;;;4.30;3.13;;;24.80;94.80;;;25.00;45.80;100027.03;4986955;28;103429;-46
2022/08/15 06:47:24;;;;;;;5.80;3.10;;;24.80;94.90;;;24.98;46.98;100015.53;4983727;28;97516;-49
2022/08/15 06:49:55;;;;;;;5.10;3.45;;;24.80;95.50;;;24.95;46.86;100021.25;4981309;28;99086;-53
2022/08/15 06:52:21;;;;;;;9.18;2.83;;;24.80;95.60;;;24.95;47.02;100023.94;4990502;28;97544;-52
2022/08/15 06:54:49;;;;;;;8.65;3.17;;;24.80;95.60;;;24.89;47.19;100020.06;4984929;28;100324;-46
2022/08/15 06:57:50;;;;;;;5.40;2.78;;;24.80;95.70;;;24.93;46.96;100020.56;5004642;28;97700;-47
2022/08/15 07:00:27;;;;;;;4.25;3.33;;;24.80;95.70;;;24.86;47.09;100016.81;4955220;28;97436;-51
2022/08/15 07:03:22;;;;;;;8.07;3.50;;;24.70;95.70;;;24.86;47.04;100024.91;5003977;28;97187;-49
2022/08/15 07:05:54;;;;;;;5.57;3.50;;;24.70;95.80;;;24.74;47.40;100016.28;4996323;28;102409;-54
2022/08/15 07:08:41;;;;;;;3.60;2.90;;;24.60;95.90;;;24.77;47.51;100020.50;4993317;28;97819;-55
2022/08/15 07:11:44;;;;;;;7.32;3.20;;;24.60;95.90;;;24.83;47.25;100014.44;5001394;28;97445;-54
2022/08/15 07:14:43;;;;;;;5.45;2.95;;;24.70;96.00;;;24.79;47.36;100018.47;4989181;28;97268;-48
2022/08/15 07:17:28;;;;;;;6.10;3.10;;;24.70;96.30;;;24.78;47.53;100016.78;4982218;28;103388;-51
2022/08/15 07:19:54;;;;;;;4.53;2.60;;;24.70;96.00;;;24.79;47.46;100013.09;4989712;28;103437;-51
2022/08/15 07:22:21;;;;;;;6.93;3.30;;;24.70;96.00;;;24.77;47.57;100017.81;4977910;28;97748;-51
2022/08/15 07:24:52;;;;;;;5.90;2.90;;;24.70;96.00;;;24.77;47.53;100020.50;5005185;28;97353;-48
2022/08/15 07:27:28;;;;;;;3.80;2.95;;;24.70;96.00;;;24.73;47.68;100019.09;4986319;27;97686;-50
2022/08/15 07:30:18;;;;;;;4.32;2.83;;;24.60;96.00;;;24.75;47.83;100017.13;4993057;28;99849;-52
2022/08/15 07:32:53;;;;;;;4.07;2.90;;;24.60;96.10;;;24.77;47.59;100020.50;4988149;28;97468;-50
2022/08/15 07:35:33;;;;;;;6.35;3.40;;;24.70;96.10;;;24.83;47.70;100019.84;4999667;28;97910;-56
2022/08/15 07:38:06;;;;;;;3.33;2.97;;;24.70;96.20;;;24.88;47.51;100022.88;5000748;28;102019;-48
2022/08/15 07:40:43;;;;;;;3.55;2.55;;;24.70;96.20;;;24.84;47.60;100027.75;4998547;28;97538;-50
2022/08/15 07:43:28;;;;;;;8.65;2.70;;;24.70;96.10;;;24.94;47.53;100030.34;4998659;28;96775;-53
2022/08/15 07:46:33;;;;;;;4.82;2.83;;;24.80;96.30;;;24.92;47.61;100033.22;5004887;28;97081;-49
2022/08/15 07:49:07;;;;;;;7.85;3.30;;;24.80;96.00;;;24.85;47.99;100034.84;5007827;28;102980;-53
2022/08/15 07:51:44;;;;;;;5.88;3.22;;;24.80;96.30;;;24.83;47.79;100030.63;4982718;28;97342;-50
2022/08/15 07:54:30;;;;;;;7.03;3.00;;;24.80;96.10;;;24.85;47.75;100034.00;4990673;28;97139;-46
2022/08/15 07:57:02;;;;;;;6.85;3.17;;;24.80;96.20;;;24.85;47.89;100034.00;5008694;28;96957;-46
2022/08/15 07:59:36;;;;;;;6.70;2.90;;;24.80;96.30;;;24.84;47.92;100037.72;5008798;28;99842;-53
2022/08/15 08:02:58;;;;;;;5.65;3.10;;;24.70;96.30;;;24.87;47.53;100026.59;5010748;27;97320;-50
2022/08/15 08:05:35;;;;;;;8.90;3.28;;;24.80;96.40;;;24.86;47.75;100041.09;5000311;28;97161;-52
2022/08/15 08:08:07;;;;;;;5.90;3.33;;;24.70;96.20;;;24.78;48.01;100038.38;5003902;28;97707;-49
2022/08/15 08:10:35;;;;;;;4.40;3.17;;;24.70;96.30;;;24.78;47.81;100032.97;4992864;28;97159;-53
2022/08/15 08:13:54;;;;;;;4.20;3.22;;;24.70;96.30;;;24.76;48.09;100035.00;4987985;28;97926;-55
2022/08/15 08:16:42;;;;;;;5.15;2.78;;;24.70;96.30;;;24.77;47.96;100039.38;5000820;28;96985;-49
2022/08/15 08:19:35;;;;;;;3.60;2.65;;;24.70;96.30;;;24.67;48.17;100042.19;4992364;28;97204;-53
2022/08/15 08:22:28;;;;;;;4.90;3.30;;;24.60;96.40;;;24.74;47.97;100042.41;4996946;27;101934;-53
2022/08/15 08:25:10;;;;;;;7.93;3.38;;;24.60;96.50;;;24.80;47.91;100052.53;4992551;28;101328;-48
2022/08/15 08:27:40;;;;;;;5.78;3.10;;;24.70;96.50;;;24.75;47.98;100050.34;4968751;28;96963;-52
2022/08/15 08:30:19;;;;;;;12.38;3.45;;;24.60;96.50;;;24.69;48.28;100055.50;5007496;28;97524;-49
2022/08/15 08:32:59;;;;;;;4.95;3.55;;;24.60;96.50;;;24.70;48.47;100052.63;5011174;28;104209;-50
2022/08/15 08:36:02;;;;;;;7.53;3.65;;;24.60;96.60;;;24.77;48.06;100050.16;5001876;28;97209;-49
2022/08/15 08:38:46;;;;;;;7.28;3.92;;;24.60;97.00;;;24.73;48.70;100046.06;5009778;27;97399;-53
2022/08/15 08:41:35;;;;;;;5.07;3.60;;;24.60;97.10;;;24.72;48.57;100044.38;4980038;28;97583;-49
2022/08/15 08:44:44;;;;;;;5.95;3.20;;;24.60;96.80;;;24.64;48.81;100042.50;4989830;28;104135;-52
2022/08/15 08:47:17;;;;;;;7.90;3.85;;;24.60;96.90;;;24.57;49.10;100050.38;4994644;28;102333;-50
2022/08/15 08:50:25;;;;;;;6.45;3.95;;;24.50;97.10;;;24.66;49.00;100053.13;4998197;28;97284;-48
2022/08/15 08:53:12;;;;;;;5.45;3.35;;;24.60;97.20;;;24.74;49.19;100050.50;4987063;28;97591;-51
2022/08/15 08:56:16;;;;;;;3.97;3.25;;;24.60;97.10;;;24.77;48.78;100052.88;5003882;28;98094;-53
2022/08/15 08:58:53;;;;;;;5.63;3.47;;;24.70;96.80;;;24.74;48.88;100050.50;4991517;28;97266;-49
2022/08/15 09:01:25;;;;;;;5.60;3.38;;;24.60;96.80;;;24.81;49.21;100048.84;4983561;28;97468;-53
2022/08/15 09:04:06;;;;;;;8.82;3.30;;;24.70;97.30;;;24.84;48.16;100049.34;4976509;28;97349;-50
2022/08/15 09:06:40;;;;;;;4.43;3.63;;;24.70;96.60;;;24.84;48.06;100043.09;4981777;28;97222;-50
2022/08/15 09:09:31;;;;;;;9.40;3.85;;;24.70;96.70;;;24.91;48.68;100054.97;5009608;28;97365;-52
2022/08/15 09:15:05;;;;;;;7.53;3.40;;;24.80;97.10;;;24.87;49.23;100053.56;4995414;28;97592;-46
2022/08/15 09:17:35;;;;;;;7.18;3.47;;;24.80;97.10;;;24.78;49.10;100060.78;5008634;28;97283;-47
2022/08/15 09:20:15;;;;;;;6.80;3.60;;;24.70;97.30;;;24.80;49.09;100052.53;5005570;28;99948;-50
2022/08/15 09:22:41;;;;;;;6.13;3.38;;;24.70;97.10;;;24.74;49.14;100055.88;4985601;28;97333;-52
2022/08/15 09:25:09;;;;;;;4.53;3.30;;;24.70;97.20;;;24.65;49.92;100054.13;5009378;28;99271;-49
2022/08/15 09:27:52;;;;;;;6.75;3.40;;;24.60;97.60;;;24.71;50.25;100064.28;5006011;28;97936;-47
2022/08/15 09:30:19;;;;;;;6.68;3.58;;;24.60;97.70;;;24.69;49.13;100061.72;4967243;28;97418;-49
2022/08/15 09:33:24;;;;;;;5.13;3.38;;;24.60;97.40;;;24.76;48.79;100061.97;4981118;28;97184;-51
2022/08/15 09:36:40;;;;;;;5.25;3.63;;;24.60;97.90;;;24.79;50.04;100069.72;5002082;28;98579;-45
2022/08/15 09:40:00;;;;;;;6.15;3.53;;;24.60;97.80;;;24.76;49.71;100075.44;5006992;28;103215;-46
2022/08/15 09:42:39;;;;;;;8.55;4.00;;;24.60;97.20;;;24.72;49.07;100077.59;4914823;28;99818;-50
2022/08/15 09:45:45;;;;;;;6.97;3.63;;;24.60;97.30;;;24.77;49.34;100074.44;4998476;28;97383;-49
2022/08/15 09:48:23;;;;;;;7.20;3.53;;;24.60;97.20;;;24.75;49.55;100068.38;5005146;28;97118;-47
2022/08/15 09:51:20;;;;;;;6.25;4.20;;;24.60;97.40;;;24.75;48.69;100076.44;5003062;28;101900;-48
2022/08/15 09:54:13;;;;;;;5.65;3.58;;;24.60;97.20;;;24.75;49.54;100071.06;5000916;28;101673;-49
2022/08/15 09:56:40;;;;;;;4.70;3.60;;;24.60;97.40;;;24.70;50.16;100067.97;4995937;28;97506;-50
2022/08/15 09:59:25;;;;;;;7.32;3.30;;;24.60;97.70;;;24.69;49.11;100072.53;5008451;28;97395;-46
2022/08/15 10:02:15;;;;;;;6.18;3.55;;;24.60;97.80;;;24.74;49.91;100063.97;4999899;28;100684;-46
2022/08/15 10:05:01;;;;;;;6.70;3.30;;;24.60;97.80;;;24.66;49.64;100067.47;4989853;28;97232;-47
2022/08/15 10:07:38;;;;;;;8.80;3.53;;;24.60;97.60;;;24.63;49.92;100067.78;5004221;28;97259;-50
2022/08/15 10:10:34;;;;;;;6.57;3.08;;;24.60;97.90;;;24.69;48.82;100058.19;5002017;28;96952;-46
2022/08/15 10:13:31;;;;;;;5.47;3.03;;;24.60;97.50;;;24.76;49.03;100067.34;4992535;28;102479;-48
2022/08/15 10:15:57;;;;;;;5.07;3.60;;;24.60;97.30;;;24.69;49.35;100071.69;4993684;28;99879;-47
2022/08/15 10:18:25;;;;;;;5.68;3.60;;;24.60;97.50;;;24.69;49.12;100063.59;5004583;28;96828;-49
2022/08/15 10:21:19;;;;;;;4.70;3.42;;;24.60;97.40;;;24.78;48.95;100071.56;4992828;28;97414;-48
2022/08/15 10:23:52;;;;;;;5.15;3.55;;;24.60;97.40;;;24.80;49.20;100074.94;4994864;28;103244;-44
2022/08/15 10:26:29;;;;;;;5.03;3.67;;;24.70;97.40;;;24.77;49.22;100080.69;5002049;28;97674;-44
2022/08/15 10:29:08;;;;;;;6.03;3.47;;;24.70;97.30;;;24.70;48.78;100074.22;4978330;28;96959;-49
2022/08/15 10:31:43;;;;;;;5.68;3.60;;;24.60;97.10;;;24.74;48.77;100077.47;4999278;28;98772;-44
2022/08/15 10:34:29;;;;;;;4.10;3.00;;;24.60;97.10;;;24.77;48.96;100079.81;4981667;28;97188;-49
2022/08/15 10:37:18;;;;;;;6.15;3.53;;;24.70;97.50;;;24.82;48.50;100078.34;4966923;28;102418;-48
2022/08/15 10:40:08;;;;;;;8.48;3.75;;;24.70;97.20;;;24.87;48.65;100077.84;4977505;28;97197;-45
2022/08/15 10:42:48;;;;;;;10.02;3.80;;;24.70;97.00;;;24.88;48.93;100082.22;4998205;28;97213;-47
2022/08/15 10:45:35;;;;;;;4.97;2.95;;;24.80;97.20;;;24.85;48.80;100082.56;4998737;28;97756;-45
2022/08/15 10:48:50;;;;;;;5.63;3.03;;;24.80;97.10;;;25.00;48.69;100091.78;5004964;28;102823;-46
2022/08/15 10:51:43;;;;;;;4.57;3.05;;;24.80;97.20;;;24.96;48.36;100084.13;5006298;28;97498;-47
2022/08/15 10:54:30;;;;;;;5.30;3.50;;;24.80;96.80;;;24.88;48.34;100088.50;5002951;28;97175;-50
2022/08/15 10:56:57;;;;;;;4.30;3.35;;;24.80;96.80;;;24.89;48.34;100094.75;5003985;28;100402;-51
2022/08/15 10:59:34;;;;;;;5.47;3.22;;;24.80;96.90;;;24.98;48.06;100092.91;5000661;28;102124;-49
2022/08/15 11:02:13;;;;;;;6.95;3.30;;;24.80;96.90;;;25.00;48.04;100097.16;5001761;28;97182;-52
2022/08/15 11:04:43;;;;;;;5.65;3.38;;;24.90;96.70;;;25.06;47.72;100096.53;4997797;28;97541;-50